This is the latest recevied weather packets stored in our database for station/object N1LJK-13. If no packets are shown the sender has not sent any weather packets the latest 10 day(s).
| Time | Temp. | Humidity | Pressure | Rain* | Wind** | Luminosity | Snow |
|---|---|---|---|---|---|---|---|
| 1777842331 | 10° C | 98% | 1005 hPa | 0 mm | - | - | - |
| 1777841131 | 9.44° C | 98% | 1005 hPa | 0 mm | - | - | - |
| 1777839931 | 10° C | 98% | 1005.1 hPa | 0 mm | - | - | - |
| 1777838731 | 10° C | 98% | 1005.3 hPa | 0 mm | - | - | - |
| 1777837531 | 9.44° C | 98% | 1005.5 hPa | 0 mm | - | - | - |
| 1777836331 | 9.44° C | 98% | 1005.6 hPa | 0 mm | - | - | - |
| 1777832731 | 7.22° C | 98% | 1005.8 hPa | 0.25 mm | - | - | - |
| 1777830331 | 7.22° C | 98% | 1005.9 hPa | 0.25 mm | - | - | - |
| 1777829131 | 7.22° C | 98% | 1005.8 hPa | 0.25 mm | - | - | - |
| 1777827931 | 7.22° C | 98% | 1005.7 hPa | 0.51 mm | - | - | - |
| 1777826731 | 6.11° C | 98% | 1005.8 hPa | 0.25 mm | - | - | - |
| 1777825531 | 6.67° C | 98% | 1005.8 hPa | 1.02 mm | - | - | - |
| 1777824331 | 6.67° C | 98% | 1005.9 hPa | 0.76 mm | - | - | - |
| 1777820731 | 6.11° C | 98% | 1006.3 hPa | 0.76 mm | - | - | - |
| 1777819531 | 6.11° C | 98% | 1006.4 hPa | 0.76 mm | - | - | - |
| 1777818331 | -17.78° C | 100% | 0 hPa | 0.25 mm | - | - | - |
| 1777817131 | 6.67° C | 98% | 1006.6 hPa | 0 mm | - | - | - |
| 1777815931 | 6.67° C | 98% | 1006.7 hPa | 0 mm | - | - | - |
| 1777814731 | 7.22° C | 98% | 1006.8 hPa | 0.25 mm | - | - | - |
| 1777813531 | 6.67° C | 98% | 1007 hPa | 0.25 mm | - | - | - |
| 1777811131 | 6.11° C | 98% | 1007.5 hPa | 1.02 mm | - | - | - |
| 1777809931 | 6.11° C | 98% | 1007.7 hPa | 1.02 mm | - | - | - |
| 1777808731 | 6.11° C | 98% | 1008 hPa | 1.02 mm | - | - | - |
| 1777807531 | 6.11° C | 98% | 1008.3 hPa | 0.51 mm | - | - | - |
| 1777806331 | 6.11° C | 98% | 1008.2 hPa | 0 mm | - | - | - |
* Rain latest hour (hover to see other rain measurements)
** Current wind speed in m/s (hover to see current wind gust speed)